X  Sluiten METAR luchtvaart weer gegevens      EHRD Rotterdam The Hague Airport
Temperatuur
55°F Temperatuur
52°F Dauwpunt
88% Vochtigheid



Wind
7 MPH
11 KM/U
3 M/S
6 KTS



260°
W
Huidig weer

Grotendeels bewolkt Grotendeels bewolkt
Luchtdruk 1008.81 (hPa) - 29.79 (inHg)
Zicht 6 (mijl) - 9.7 (km)
Vliegveld
Vliegveld code EHRD

Locatie : Rotterdam The Hague Airport
Afstand: 11 (mi)

Metar:
EHRD 302025Z AUTO 26006KT 230V300 9999 BKN010/// OVC012/// 13/11 Q1009 TEMPO 5000 -RADZ BKN009

Tijd: 30-05-2024 22:25 CEST